sensor_id;sensor_type;location;lat;lon;timestamp;pressure;altitude;pressure_sealevel;temperature;humidity
48077;BME280;33854;57.708;12.008;2023-04-03T00:00:50;102981.63;;;-0.79;100.00
48077;BME280;33854;57.708;12.008;2023-04-03T00:03:17;103019.91;;;-0.60;100.00
48077;BME280;33854;57.708;12.008;2023-04-03T00:05:43;103018.28;;;-0.57;100.00
48077;BME280;33854;57.708;12.008;2023-04-03T00:08:08;103012.19;;;-0.61;100.00
48077;BME280;33854;57.708;12.008;2023-04-03T00:10:36;103010.19;;;-0.68;100.00
48077;BME280;33854;57.708;12.008;2023-04-03T00:13:01;103006.81;;;-0.67;100.00
48077;BME280;33854;57.708;12.008;2023-04-03T00:15:27;103008.66;;;-0.63;100.00
48077;BME280;33854;57.708;12.008;2023-04-03T00:17:52;103000.06;;;-0.65;100.00
48077;BME280;33854;57.708;12.008;2023-04-03T00:20:18;103000.91;;;-0.66;100.00
48077;BME280;33854;57.708;12.008;2023-04-03T00:22:43;102999.91;;;-0.70;100.00
48077;BME280;33854;57.708;12.008;2023-04-03T00:25:09;102993.91;;;-0.70;100.00
48077;BME280;33854;57.708;12.008;2023-04-03T00:27:37;102995.47;;;-0.74;100.00
48077;BME280;33854;57.708;12.008;2023-04-03T00:30:03;102996.34;;;-0.73;100.00
48077;BME280;33854;57.708;12.008;2023-04-03T00:32:29;102992.97;;;-0.72;100.00
48077;BME280;33854;57.708;12.008;2023-04-03T00:34:55;103004.31;;;-0.66;100.00
48077;BME280;33854;57.708;12.008;2023-04-03T00:37:20;103006.81;;;-0.67;100.00
48077;BME280;33854;57.708;12.008;2023-04-03T00:39:46;103012.66;;;-0.71;100.00
48077;BME280;33854;57.708;12.008;2023-04-03T00:42:11;103005.91;;;-0.69;100.00
48077;BME280;33854;57.708;12.008;2023-04-03T00:47:05;103012.44;;;-0.77;100.00
48077;BME280;33854;57.708;12.008;2023-04-03T00:49:32;103016.38;;;-0.87;100.00
48077;BME280;33854;57.708;12.008;2023-04-03T00:51:58;103018.59;;;-0.96;100.00
48077;BME280;33854;57.708;12.008;2023-04-03T00:54:25;103015.25;;;-0.93;100.00
48077;BME280;33854;57.708;12.008;2023-04-03T00:56:52;103019.63;;;-0.91;100.00
48077;BME280;33854;57.708;12.008;2023-04-03T00:59:27;103011.28;;;-0.85;100.00
48077;BME280;33854;57.708;12.008;2023-04-03T01:01:55;103019.19;;;-0.79;100.00
48077;BME280;33854;57.708;12.008;2023-04-03T01:04:41;103024.22;;;-0.82;100.00
48077;BME280;33854;57.708;12.008;2023-04-03T01:07:14;103018.81;;;-0.90;100.00
48077;BME280;33854;57.708;12.008;2023-04-03T01:09:41;103012.69;;;-0.93;100.00
48077;BME280;33854;57.708;12.008;2023-04-03T01:14:42;102991.63;;;-1.08;100.00
48077;BME280;33854;57.708;12.008;2023-04-03T01:28:13;103012.47;;;-0.99;100.00
48077;BME280;33854;57.708;12.008;2023-04-03T01:30:45;103018.50;;;-0.97;100.00
48077;BME280;33854;57.708;12.008;2023-04-03T01:33:12;103019.03;;;-1.06;100.00
48077;BME280;33854;57.708;12.008;2023-04-03T01:35:37;103022.19;;;-1.13;100.00
48077;BME280;33854;57.708;12.008;2023-04-03T01:38:03;103017.47;;;-1.25;100.00
48077;BME280;33854;57.708;12.008;2023-04-03T01:40:28;103024.38;;;-1.24;100.00
48077;BME280;33854;57.708;12.008;2023-04-03T01:42:54;103029.41;;;-1.25;100.00
48077;BME280;33854;57.708;12.008;2023-04-03T01:45:19;103028.41;;;-1.29;100.00
48077;BME280;33854;57.708;12.008;2023-04-03T01:47:45;103028.25;;;-1.33;100.00
48077;BME280;33854;57.708;12.008;2023-04-03T01:50:10;103017.19;;;-1.32;100.00
48077;BME280;33854;57.708;12.008;2023-04-03T01:52:35;103022.50;;;-1.28;100.00
48077;BME280;33854;57.708;12.008;2023-04-03T01:55:01;103025.94;;;-1.27;100.00
48077;BME280;33854;57.708;12.008;2023-04-03T01:57:26;103018.16;;;-1.29;100.00
48077;BME280;33854;57.708;12.008;2023-04-03T01:59:52;103021.59;;;-1.28;100.00
48077;BME280;33854;57.708;12.008;2023-04-03T02:02:17;103018.28;;;-1.26;100.00
48077;BME280;33854;57.708;12.008;2023-04-03T02:04:44;103008.63;;;-1.33;100.00
48077;BME280;33854;57.708;12.008;2023-04-03T02:07:10;103013.94;;;-1.28;100.00
48077;BME280;33854;57.708;12.008;2023-04-03T02:09:35;102997.31;;;-1.38;100.00
48077;BME280;33854;57.708;12.008;2023-04-03T02:12:01;103016.44;;;-1.30;100.00
48077;BME280;33854;57.708;12.008;2023-04-03T02:14:26;103028.28;;;-1.32;100.00
48077;BME280;33854;57.708;12.008;2023-04-03T02:16:52;103022.94;;;-1.38;100.00
48077;BME280;33854;57.708;12.008;2023-04-03T02:19:18;103009.69;;;-1.50;100.00
48077;BME280;33854;57.708;12.008;2023-04-03T02:21:44;103015.47;;;-1.54;100.00
48077;BME280;33854;57.708;12.008;2023-04-03T02:24:09;103037.97;;;-1.47;100.00
48077;BME280;33854;57.708;12.008;2023-04-03T02:26:35;103030.09;;;-1.51;100.00
48077;BME280;33854;57.708;12.008;2023-04-03T02:29:00;103023.88;;;-1.58;100.00
48077;BME280;33854;57.708;12.008;2023-04-03T02:31:26;103015.19;;;-1.61;100.00
48077;BME280;33854;57.708;12.008;2023-04-03T02:33:51;103042.72;;;-1.56;100.00
48077;BME280;33854;57.708;12.008;2023-04-03T02:36:17;103046.03;;;-1.58;100.00
48077;BME280;33854;57.708;12.008;2023-04-03T02:38:42;103036.59;;;-1.59;100.00
48077;BME280;33854;57.708;12.008;2023-04-03T02:41:09;103044.69;;;-1.49;100.00
48077;BME280;33854;57.708;12.008;2023-04-03T02:43:36;103039.44;;;-1.52;100.00
48077;BME280;33854;57.708;12.008;2023-04-03T02:46:01;103049.56;;;-1.55;100.00
48077;BME280;33854;57.708;12.008;2023-04-03T02:48:27;103046.16;;;-1.55;100.00
48077;BME280;33854;57.708;12.008;2023-04-03T02:50:53;103047.75;;;-1.57;100.00
48077;BME280;33854;57.708;12.008;2023-04-03T02:53:19;103045.16;;;-1.59;100.00
48077;BME280;33854;57.708;12.008;2023-04-03T02:55:45;103046.59;;;-1.65;100.00
48077;BME280;33854;57.708;12.008;2023-04-03T02:58:10;103045.56;;;-1.69;100.00
48077;BME280;33854;57.708;12.008;2023-04-03T03:00:36;103038.47;;;-1.76;100.00
48077;BME280;33854;57.708;12.008;2023-04-03T03:03:02;103043.72;;;-1.73;100.00
48077;BME280;33854;57.708;12.008;2023-04-03T03:05:27;103048.59;;;-1.79;100.00
48077;BME280;33854;57.708;12.008;2023-04-03T03:07:53;103041.94;;;-1.95;100.00
48077;BME280;33854;57.708;12.008;2023-04-03T03:10:20;103061.50;;;-1.97;100.00
48077;BME280;33854;57.708;12.008;2023-04-03T03:12:45;103051.69;;;-2.07;100.00
48077;BME280;33854;57.708;12.008;2023-04-03T03:15:11;103051.94;;;-2.01;100.00
48077;BME280;33854;57.708;12.008;2023-04-03T03:17:36;103057.13;;;-1.99;100.00
48077;BME280;33854;57.708;12.008;2023-04-03T03:20:05;103062.28;;;-1.98;100.00
48077;BME280;33854;57.708;12.008;2023-04-03T03:22:32;103061.31;;;-2.01;100.00
48077;BME280;33854;57.708;12.008;2023-04-03T03:24:57;103058.69;;;-2.03;100.00
48077;BME280;33854;57.708;12.008;2023-04-03T03:27:22;103058.75;;;-2.01;100.00
48077;BME280;33854;57.708;12.008;2023-04-03T03:29:49;103053.63;;;-2.01;100.00
48077;BME280;33854;57.708;12.008;2023-04-03T03:32:15;103051.94;;;-2.01;100.00
48077;BME280;33854;57.708;12.008;2023-04-03T03:34:40;103059.69;;;-1.99;100.00
48077;BME280;33854;57.708;12.008;2023-04-03T03:37:06;103058.94;;;-1.97;100.00
48077;BME280;33854;57.708;12.008;2023-04-03T03:39:31;103053.69;;;-2.00;100.00
48077;BME280;33854;57.708;12.008;2023-04-03T03:41:56;103050.38;;;-1.97;100.00
48077;BME280;33854;57.708;12.008;2023-04-03T03:44:22;103056.06;;;-2.04;100.00
48077;BME280;33854;57.708;12.008;2023-04-03T03:46:47;103059.25;;;-2.10;100.00
48077;BME280;33854;57.708;12.008;2023-04-03T03:49:13;103040.88;;;-2.20;100.00
48077;BME280;33854;57.708;12.008;2023-04-03T03:51:39;103054.97;;;-2.09;100.00
48077;BME280;33854;57.708;12.008;2023-04-03T03:54:06;103059.25;;;-2.10;100.00
48077;BME280;33854;57.708;12.008;2023-04-03T03:56:31;103065.97;;;-2.12;100.00
48077;BME280;33854;57.708;12.008;2023-04-03T03:58:57;103059.16;;;-2.11;100.00
48077;BME280;33854;57.708;12.008;2023-04-03T04:01:23;103056.72;;;-2.08;100.00
48077;BME280;33854;57.708;12.008;2023-04-03T04:03:49;103017.41;;;-2.31;100.00
48077;BME280;33854;57.708;12.008;2023-04-03T04:06:15;103054.31;;;-2.05;100.00
48077;BME280;33854;57.708;12.008;2023-04-03T04:08:42;103052.81;;;-2.00;100.00
48077;BME280;33854;57.708;12.008;2023-04-03T04:11:08;103047.81;;;-1.97;100.00
48077;BME280;33854;57.708;12.008;2023-04-03T04:13:34;103058.88;;;-1.98;100.00
48077;BME280;33854;57.708;12.008;2023-04-03T04:16:00;103064.94;;;-1.96;100.00
48077;BME280;33854;57.708;12.008;2023-04-03T04:18:25;103065.41;;;-2.05;100.00
48077;BME280;33854;57.708;12.008;2023-04-03T04:20:51;103069.53;;;-2.08;100.00
48077;BME280;33854;57.708;12.008;2023-04-03T04:23:17;103076.13;;;-2.13;100.00
48077;BME280;33854;57.708;12.008;2023-04-03T04:25:47;103069.00;;;-2.20;100.00
48077;BME280;33854;57.708;12.008;2023-04-03T04:28:14;103071.38;;;-2.25;100.00
48077;BME280;33854;57.708;12.008;2023-04-03T04:30:39;103083.28;;;-2.25;100.00
48077;BME280;33854;57.708;12.008;2023-04-03T04:33:05;103090.91;;;-2.27;100.00
48077;BME280;33854;57.708;12.008;2023-04-03T04:35:30;103080.81;;;-2.24;100.00
48077;BME280;33854;57.708;12.008;2023-04-03T04:37:56;103079.22;;;-2.20;100.00
48077;BME280;33854;57.708;12.008;2023-04-03T04:40:21;103068.19;;;-2.19;100.00
48077;BME280;33854;57.708;12.008;2023-04-03T04:42:47;103071.91;;;-2.13;100.00
48077;BME280;33854;57.708;12.008;2023-04-03T04:45:12;103062.72;;;-2.08;100.00
48077;BME280;33854;57.708;12.008;2023-04-03T04:47:38;103049.06;;;-2.08;100.00
48077;BME280;33854;57.708;12.008;2023-04-03T04:50:04;103045.31;;;-2.16;100.00
48077;BME280;33854;57.708;12.008;2023-04-03T04:52:29;103050.59;;;-2.12;100.00
48077;BME280;33854;57.708;12.008;2023-04-03T04:54:55;103038.66;;;-2.13;100.00
48077;BME280;33854;57.708;12.008;2023-04-03T04:57:20;103033.91;;;-2.04;100.00
48077;BME280;33854;57.708;12.008;2023-04-03T04:59:46;103041.91;;;-1.96;100.00
48077;BME280;33854;57.708;12.008;2023-04-03T05:02:11;103033.44;;;-1.95;100.00
48077;BME280;33854;57.708;12.008;2023-04-03T05:04:37;103035.09;;;-1.96;100.00
48077;BME280;33854;57.708;12.008;2023-04-03T05:07:02;103045.47;;;-1.93;100.00
48077;BME280;33854;57.708;12.008;2023-04-03T05:09:28;103034.97;;;-1.99;100.00
48077;BME280;33854;57.708;12.008;2023-04-03T05:11:53;103027.94;;;-2.04;100.00
48077;BME280;33854;57.708;12.008;2023-04-03T05:14:19;103021.84;;;-2.06;100.00
48077;BME280;33854;57.708;12.008;2023-04-03T05:16:45;103031.22;;;-2.07;100.00
48077;BME280;33854;57.708;12.008;2023-04-03T05:19:10;103007.81;;;-2.16;100.00
48077;BME280;33854;57.708;12.008;2023-04-03T05:21:36;103023.59;;;-2.05;100.00
48077;BME280;33854;57.708;12.008;2023-04-03T05:24:02;102997.88;;;-2.08;100.00
48077;BME280;33854;57.708;12.008;2023-04-03T05:26:31;102998.41;;;-1.96;100.00
48077;BME280;33854;57.708;12.008;2023-04-03T05:28:57;102995.84;;;-1.96;100.00
48077;BME280;33854;57.708;12.008;2023-04-03T05:31:22;102981.03;;;-2.03;100.00
48077;BME280;33854;57.708;12.008;2023-04-03T05:33:48;102995.13;;;-1.92;100.00
48077;BME280;33854;57.708;12.008;2023-04-03T05:36:14;102992.91;;;-1.85;100.00
48077;BME280;33854;57.708;12.008;2023-04-03T05:38:40;103005.97;;;-1.79;100.00
48077;BME280;33854;57.708;12.008;2023-04-03T05:41:06;103009.72;;;-1.69;100.00
48077;BME280;33854;57.708;12.008;2023-04-03T05:43:31;103012.38;;;-1.67;100.00
48077;BME280;33854;57.708;12.008;2023-04-03T05:45:59;103017.09;;;-1.56;100.00
48077;BME280;33854;57.708;12.008;2023-04-03T05:48:24;103026.09;;;-1.45;100.00
48077;BME280;33854;57.708;12.008;2023-04-03T05:50:50;103021.88;;;-1.43;100.00
48077;BME280;33854;57.708;12.008;2023-04-03T05:53:21;103032.38;;;-1.37;100.00
48077;BME280;33854;57.708;12.008;2023-04-03T05:55:47;103038.78;;;-1.26;100.00
48077;BME280;33854;57.708;12.008;2023-04-03T05:58:13;103052.84;;;-1.16;100.00
48077;BME280;33854;57.708;12.008;2023-04-03T06:00:38;103053.22;;;-1.05;100.00
48077;BME280;33854;57.708;12.008;2023-04-03T06:03:04;103018.66;;;-1.17;100.00
48077;BME280;33854;57.708;12.008;2023-04-03T06:05:30;103055.50;;;-0.91;100.00
48077;BME280;33854;57.708;12.008;2023-04-03T06:07:55;103052.06;;;-0.91;100.00
48077;BME280;33854;57.708;12.008;2023-04-03T06:10:22;103049.56;;;-0.90;100.00
48077;BME280;33854;57.708;12.008;2023-04-03T06:12:47;103045.44;;;-0.86;100.00
48077;BME280;33854;57.708;12.008;2023-04-03T06:15:13;103054.06;;;-0.84;100.00
48077;BME280;33854;57.708;12.008;2023-04-03T06:17:38;103064.53;;;-0.78;100.00
48077;BME280;33854;57.708;12.008;2023-04-03T06:20:04;103071.50;;;-0.74;100.00
48077;BME280;33854;57.708;12.008;2023-04-03T06:22:30;103081.34;;;-0.63;100.00
48077;BME280;33854;57.708;12.008;2023-04-03T06:24:56;103087.63;;;-0.54;100.00
48077;BME280;33854;57.708;12.008;2023-04-03T06:27:22;103085.94;;;-0.54;100.00
48077;BME280;33854;57.708;12.008;2023-04-03T06:29:47;103093.97;;;-0.45;100.00
48077;BME280;33854;57.708;12.008;2023-04-03T06:32:14;103099.41;;;-0.37;100.00
48077;BME280;33854;57.708;12.008;2023-04-03T06:34:40;103103.69;;;-0.36;100.00
48077;BME280;33854;57.708;12.008;2023-04-03T06:37:27;103102.13;;;-0.33;100.00
48077;BME280;33854;57.708;12.008;2023-04-03T06:39:54;103120.75;;;-0.15;100.00
48077;BME280;33854;57.708;12.008;2023-04-03T06:42:20;103115.88;;;-0.07;100.00
48077;BME280;33854;57.708;12.008;2023-04-03T06:44:46;103121.03;;;-0.06;100.00
48077;BME280;33854;57.708;12.008;2023-04-03T06:47:13;103109.06;;;-0.07;100.00
48077;BME280;33854;57.708;12.008;2023-04-03T06:49:38;103126.59;;;0.05;100.00
48077;BME280;33854;57.708;12.008;2023-04-03T06:52:04;103121.66;;;0.11;100.00
48077;BME280;33854;57.708;12.008;2023-04-03T06:54:30;103110.63;;;0.14;100.00
48077;BME280;33854;57.708;12.008;2023-04-03T06:56:56;103111.66;;;0.19;100.00
48077;BME280;33854;57.708;12.008;2023-04-03T06:59:21;103114.41;;;0.25;100.00
48077;BME280;33854;57.708;12.008;2023-04-03T07:01:47;103120.78;;;0.36;100.00
48077;BME280;33854;57.708;12.008;2023-04-03T07:04:12;103120.09;;;0.40;100.00
48077;BME280;33854;57.708;12.008;2023-04-03T07:06:38;103128.25;;;0.53;100.00
48077;BME280;33854;57.708;12.008;2023-04-03T07:09:03;103137.16;;;0.65;100.00
48077;BME280;33854;57.708;12.008;2023-04-03T07:11:29;103122.75;;;0.70;100.00
48077;BME280;33854;57.708;12.008;2023-04-03T07:13:54;103132.72;;;0.86;100.00
48077;BME280;33854;57.708;12.008;2023-04-03T07:16:20;103147.56;;;0.94;100.00
48077;BME280;33854;57.708;12.008;2023-04-03T07:18:45;103138.38;;;1.02;100.00
48077;BME280;33854;57.708;12.008;2023-04-03T07:21:12;103142.09;;;1.12;100.00
48077;BME280;33854;57.708;12.008;2023-04-03T07:23:38;103140.50;;;1.15;100.00
48077;BME280;33854;57.708;12.008;2023-04-03T07:26:04;103146.09;;;1.29;100.00
48077;BME280;33854;57.708;12.008;2023-04-03T07:28:29;103143.81;;;1.40;100.00
48077;BME280;33854;57.708;12.008;2023-04-03T07:31:13;103144.09;;;1.49;100.00
48077;BME280;33854;57.708;12.008;2023-04-03T07:33:40;103139.06;;;1.53;100.00
48077;BME280;33854;57.708;12.008;2023-04-03T07:36:06;103149.66;;;1.64;100.00
48077;BME280;33854;57.708;12.008;2023-04-03T07:38:33;103147.34;;;1.71;100.00
48077;BME280;33854;57.708;12.008;2023-04-03T07:40:58;103150.03;;;1.76;100.00
48077;BME280;33854;57.708;12.008;2023-04-03T07:43:24;103139.13;;;1.85;100.00
48077;BME280;33854;57.708;12.008;2023-04-03T07:45:50;103151.25;;;1.89;100.00
48077;BME280;33854;57.708;12.008;2023-04-03T07:48:23;103146.47;;;2.02;100.00
48077;BME280;33854;57.708;12.008;2023-04-03T07:50:49;103141.50;;;2.08;100.00
48077;BME280;33854;57.708;12.008;2023-04-03T07:53:15;103151.34;;;2.23;100.00
48077;BME280;33854;57.708;12.008;2023-04-03T07:55:41;103143.72;;;2.27;100.00
48077;BME280;33854;57.708;12.008;2023-04-03T07:58:11;103156.84;;;2.37;100.00
48077;BME280;33854;57.708;12.008;2023-04-03T08:00:37;103156.28;;;2.47;100.00
48077;BME280;33854;57.708;12.008;2023-04-03T08:03:03;103150.25;;;2.48;100.00
48077;BME280;33854;57.708;12.008;2023-04-03T08:05:28;103142.75;;;2.55;100.00
48077;BME280;33854;57.708;12.008;2023-04-03T08:07:54;103144.53;;;2.58;100.00
48077;BME280;33854;57.708;12.008;2023-04-03T08:10:19;103154.94;;;2.62;100.00
48077;BME280;33854;57.708;12.008;2023-04-03T08:12:47;103148.31;;;2.72;100.00
48077;BME280;33854;57.708;12.008;2023-04-03T08:15:13;103145.88;;;2.78;100.00
48077;BME280;33854;57.708;12.008;2023-04-03T08:17:39;103151.22;;;2.87;100.00
48077;BME280;33854;57.708;12.008;2023-04-03T08:20:05;103150.56;;;2.94;100.00
48077;BME280;33854;57.708;12.008;2023-04-03T08:22:32;103153.22;;;2.97;100.00
48077;BME280;33854;57.708;12.008;2023-04-03T08:24:58;103150.72;;;3.00;100.00
48077;BME280;33854;57.708;12.008;2023-04-03T08:27:23;103151.81;;;3.10;100.00
48077;BME280;33854;57.708;12.008;2023-04-03T08:29:49;103149.38;;;3.17;100.00
48077;BME280;33854;57.708;12.008;2023-04-03T08:32:14;103148.56;;;3.18;100.00
48077;BME280;33854;57.708;12.008;2023-04-03T08:34:40;103144.25;;;3.19;100.00
48077;BME280;33854;57.708;12.008;2023-04-03T08:37:05;103148.81;;;3.30;100.00
48077;BME280;33854;57.708;12.008;2023-04-03T08:39:31;103136.03;;;3.35;100.00
48077;BME280;33854;57.708;12.008;2023-04-03T08:42:00;103149.97;;;3.43;100.00
48077;BME280;33854;57.708;12.008;2023-04-03T08:44:47;103152.75;;;3.54;100.00
48077;BME280;33854;57.708;12.008;2023-04-03T08:49:48;103148.66;;;3.63;100.00
48077;BME280;33854;57.708;12.008;2023-04-03T08:52:24;103152.34;;;3.74;100.00
48077;BME280;33854;57.708;12.008;2023-04-03T08:54:57;103154.09;;;3.77;100.00
48077;BME280;33854;57.708;12.008;2023-04-03T08:57:38;103157.69;;;3.83;100.00
48077;BME280;33854;57.708;12.008;2023-04-03T09:02:45;103150.09;;;3.91;100.00
48077;BME280;33854;57.708;12.008;2023-04-03T09:08:07;103151.22;;;4.05;100.00
48077;BME280;33854;57.708;12.008;2023-04-03T09:10:38;103130.56;;;4.05;100.00
48077;BME280;33854;57.708;12.008;2023-04-03T09:15:46;103137.00;;;4.27;100.00
48077;BME280;33854;57.708;12.008;2023-04-03T09:18:23;103133.56;;;4.28;100.00
48077;BME280;33854;57.708;12.008;2023-04-03T09:21:42;103136.97;;;4.25;100.00
48077;BME280;33854;57.708;12.008;2023-04-03T09:24:11;103139.00;;;4.43;100.00
48077;BME280;33854;57.708;12.008;2023-04-03T09:26:57;103139.22;;;4.56;100.00
48077;BME280;33854;57.708;12.008;2023-04-03T09:29:25;103136.59;;;4.52;100.00
48077;BME280;33854;57.708;12.008;2023-04-03T09:31:57;103129.09;;;4.69;100.00
48077;BME280;33854;57.708;12.008;2023-04-03T09:34:31;103123.25;;;4.79;100.00
48077;BME280;33854;57.708;12.008;2023-04-03T09:36:59;103119.72;;;4.77;100.00
48077;BME280;33854;57.708;12.008;2023-04-03T09:39:27;103123.13;;;4.73;100.00
48077;BME280;33854;57.708;12.008;2023-04-03T09:42:16;103127.44;;;4.74;100.00
48077;BME280;33854;57.708;12.008;2023-04-03T09:44:54;103115.47;;;4.80;100.00
48077;BME280;33854;57.708;12.008;2023-04-03T09:47:25;103119.03;;;4.87;100.00
48077;BME280;33854;57.708;12.008;2023-04-03T09:50:17;103114.06;;;4.99;100.00
48077;BME280;33854;57.708;12.008;2023-04-03T09:52:49;103108.94;;;5.03;100.00
48077;BME280;33854;57.708;12.008;2023-04-03T09:55:23;103110.78;;;5.12;100.00
48077;BME280;33854;57.708;12.008;2023-04-03T09:58:05;103110.97;;;5.24;100.00
48077;BME280;33854;57.708;12.008;2023-04-03T10:00:54;103107.50;;;5.24;100.00
48077;BME280;33854;57.708;12.008;2023-04-03T10:03:38;103099.78;;;5.25;100.00
48077;BME280;33854;57.708;12.008;2023-04-03T10:06:23;103106.84;;;5.40;100.00
48077;BME280;33854;57.708;12.008;2023-04-03T10:09:17;103100.06;;;5.48;100.00
48077;BME280;33854;57.708;12.008;2023-04-03T10:14:36;103099.44;;;5.68;100.00
48077;BME280;33854;57.708;12.008;2023-04-03T10:17:36;103096.91;;;5.74;100.00
48077;BME280;33854;57.708;12.008;2023-04-03T10:23:05;103085.03;;;5.90;100.00
48077;BME280;33854;57.708;12.008;2023-04-03T10:25:47;103075.69;;;6.06;100.00
48077;BME280;33854;57.708;12.008;2023-04-03T10:28:39;103054.81;;;5.92;100.00
48077;BME280;33854;57.708;12.008;2023-04-03T10:34:05;103071.31;;;5.99;100.00
48077;BME280;33854;57.708;12.008;2023-04-03T10:39:27;103050.91;;;6.38;100.00
48077;BME280;33854;57.708;12.008;2023-04-03T10:47:40;103042.41;;;6.59;100.00
48077;BME280;33854;57.708;12.008;2023-04-03T10:52:48;103039.66;;;6.36;100.00
48077;BME280;33854;57.708;12.008;2023-04-03T10:59:05;103032.09;;;6.65;100.00
48077;BME280;33854;57.708;12.008;2023-04-03T11:01:42;103015.69;;;6.70;100.00
48077;BME280;33854;57.708;12.008;2023-04-03T11:04:09;103035.66;;;6.82;100.00
48077;BME280;33854;57.708;12.008;2023-04-03T11:07:08;103023.63;;;6.92;100.00
48077;BME280;33854;57.708;12.008;2023-04-03T11:09:34;103029.56;;;6.78;100.00
48077;BME280;33854;57.708;12.008;2023-04-03T11:12:58;103003.69;;;6.91;100.00
48077;BME280;33854;57.708;12.008;2023-04-03T11:14:57;103020.19;;;7.02;99.88
48077;BME280;33854;57.708;12.008;2023-04-03T11:17:45;103017.56;;;6.99;98.69
48077;BME280;33854;57.708;12.008;2023-04-03T11:20:20;103021.06;;;7.07;99.44
48077;BME280;33854;57.708;12.008;2023-04-03T11:22:58;102998.56;;;7.03;99.05
48077;BME280;33854;57.708;12.008;2023-04-03T11:25:29;103010.81;;;7.34;99.48
48077;BME280;33854;57.708;12.008;2023-04-03T11:28:01;103006.47;;;7.40;99.83
48077;BME280;33854;57.708;12.008;2023-04-03T11:35:55;102994.44;;;7.62;99.86
48077;BME280;33854;57.708;12.008;2023-04-03T11:38:29;103000.47;;;7.54;99.10
48077;BME280;33854;57.708;12.008;2023-04-03T11:41:00;102994.38;;;7.44;98.62
48077;BME280;33854;57.708;12.008;2023-04-03T11:43:30;103002.97;;;7.26;98.22
48077;BME280;33854;57.708;12.008;2023-04-03T11:45:59;102989.94;;;7.10;97.30
48077;BME280;33854;57.708;12.008;2023-04-03T11:50:55;102980.50;;;7.40;98.51
48077;BME280;33854;57.708;12.008;2023-04-03T11:53:30;102985.78;;;7.60;99.38
48077;BME280;33854;57.708;12.008;2023-04-03T11:55:59;102978.88;;;7.83;99.48
48077;BME280;33854;57.708;12.008;2023-04-03T12:00:56;102966.75;;;8.34;98.98
48077;BME280;33854;57.708;12.008;2023-04-03T12:13:37;102949.31;;;8.75;95.84
48077;BME280;33854;57.708;12.008;2023-04-03T12:16:05;102952.56;;;9.20;95.79
48077;BME280;33854;57.708;12.008;2023-04-03T12:21:08;102935.38;;;10.17;93.56
48077;BME280;33854;57.708;12.008;2023-04-03T12:23:58;102945.97;;;9.98;88.83
48077;BME280;33854;57.708;12.008;2023-04-03T12:26:50;102932.81;;;10.91;86.28
48077;BME280;33854;57.708;12.008;2023-04-03T12:48:39;102896.78;;;12.67;66.98
48077;BME280;33854;57.708;12.008;2023-04-03T12:54:03;102889.09;;;12.99;60.96
48077;BME280;33854;57.708;12.008;2023-04-03T12:56:36;102870.06;;;13.31;60.56
48077;BME280;33854;57.708;12.008;2023-04-03T12:59:23;102892.44;;;13.45;57.39
48077;BME280;33854;57.708;12.008;2023-04-03T13:01:57;102877.06;;;13.29;57.84
48077;BME280;33854;57.708;12.008;2023-04-03T13:04:23;102852.50;;;13.34;58.12
48077;BME280;33854;57.708;12.008;2023-04-03T13:06:49;102878.19;;;12.77;57.39
48077;BME280;33854;57.708;12.008;2023-04-03T13:09:24;102888.41;;;12.49;57.44
48077;BME280;33854;57.708;12.008;2023-04-03T13:14:35;102869.44;;;12.80;58.22
48077;BME280;33854;57.708;12.008;2023-04-03T13:17:13;102874.38;;;13.32;55.43
48077;BME280;33854;57.708;12.008;2023-04-03T13:19:39;102882.22;;;13.33;54.81
48077;BME280;33854;57.708;12.008;2023-04-03T13:22:34;102873.22;;;12.22;53.71
48077;BME280;33854;57.708;12.008;2023-04-03T13:25:07;102857.16;;;12.82;55.02
48077;BME280;33854;57.708;12.008;2023-04-03T13:27:35;102862.06;;;13.35;54.77
48077;BME280;33854;57.708;12.008;2023-04-03T13:30:02;102854.84;;;13.45;54.42
48077;BME280;33854;57.708;12.008;2023-04-03T13:32:30;102859.22;;;13.44;53.32
48077;BME280;33854;57.708;12.008;2023-04-03T13:34:57;102850.25;;;13.87;53.63
48077;BME280;33854;57.708;12.008;2023-04-03T13:37:33;102840.03;;;14.42;52.63
48077;BME280;33854;57.708;12.008;2023-04-03T13:42:34;102833.41;;;14.27;50.46
48077;BME280;33854;57.708;12.008;2023-04-03T13:45:23;102846.31;;;14.04;50.14
48077;BME280;33854;57.708;12.008;2023-04-03T13:47:51;102842.44;;;14.17;50.00
48077;BME280;33854;57.708;12.008;2023-04-03T13:58:27;102817.16;;;14.75;49.23
48077;BME280;33854;57.708;12.008;2023-04-03T14:00:51;102825.84;;;14.15;49.62
48077;BME280;33854;57.708;12.008;2023-04-03T14:03:27;102809.88;;;14.83;48.72
48077;BME280;33854;57.708;12.008;2023-04-03T14:05:53;102825.38;;;15.20;46.78
48077;BME280;33854;57.708;12.008;2023-04-03T14:08:19;102811.81;;;15.32;47.44
48077;BME280;33854;57.708;12.008;2023-04-03T14:10:45;102823.50;;;14.68;46.70
48077;BME280;33854;57.708;12.008;2023-04-03T14:13:17;102816.69;;;14.30;47.65
48077;BME280;33854;57.708;12.008;2023-04-03T14:15:44;102811.91;;;13.83;48.10
48077;BME280;33854;57.708;12.008;2023-04-03T14:18:16;102806.47;;;14.52;48.15
48077;BME280;33854;57.708;12.008;2023-04-03T14:20:41;102811.75;;;15.33;48.14
48077;BME280;33854;57.708;12.008;2023-04-03T14:23:07;102790.34;;;15.44;48.49
48077;BME280;33854;57.708;12.008;2023-04-03T14:25:32;102802.13;;;15.85;48.04
48077;BME280;33854;57.708;12.008;2023-04-03T14:27:58;102783.41;;;16.64;47.53
48077;BME280;33854;57.708;12.008;2023-04-03T14:30:33;102790.66;;;16.11;46.74
48077;BME280;33854;57.708;12.008;2023-04-03T14:32:59;102789.59;;;16.63;46.49